sensor_id;sensor_type;location;lat;lon;timestamp;pressure;altitude;pressure_sealevel;temperature;humidity
67842;BME280;54642;59.126;37.876;2022-09-30T00:00:55;99524.13;;;10.40;81.40
67842;BME280;54642;59.126;37.876;2022-09-30T00:03:21;99529.28;;;10.43;81.36
67842;BME280;54642;59.126;37.876;2022-09-30T00:05:55;99542.09;;;10.55;81.39
67842;BME280;54642;59.126;37.876;2022-09-30T00:08:21;99521.44;;;10.46;81.28
67842;BME280;54642;59.126;37.876;2022-09-30T00:10:57;99486.25;;;10.31;81.31
67842;BME280;54642;59.126;37.876;2022-09-30T00:13:23;99533.34;;;10.62;81.37
67842;BME280;54642;59.126;37.876;2022-09-30T00:15:49;99515.28;;;10.55;81.35
67842;BME280;54642;59.126;37.876;2022-09-30T00:18:15;99510.94;;;10.58;81.45
67842;BME280;54642;59.126;37.876;2022-09-30T00:20:41;99504.06;;;10.56;81.47
67842;BME280;54642;59.126;37.876;2022-09-30T00:23:07;99515.94;;;10.72;81.75
67842;BME280;54642;59.126;37.876;2022-09-30T00:25:33;99519.44;;;10.70;81.77
67842;BME280;54642;59.126;37.876;2022-09-30T00:27:58;99492.00;;;10.53;81.91
67842;BME280;54642;59.126;37.876;2022-09-30T00:30:24;99522.84;;;10.73;82.03
67842;BME280;54642;59.126;37.876;2022-09-30T00:32:50;99521.16;;;10.67;81.79
67842;BME280;54642;59.126;37.876;2022-09-30T00:35:16;99528.88;;;10.72;81.88
67842;BME280;54642;59.126;37.876;2022-09-30T00:37:42;99529.69;;;10.77;82.12
67842;BME280;54642;59.126;37.876;2022-09-30T00:40:08;99524.53;;;10.73;82.08
67842;BME280;54642;59.126;37.876;2022-09-30T00:42:39;99505.75;;;10.58;82.22
67842;BME280;54642;59.126;37.876;2022-09-30T00:45:08;99499.72;;;10.56;82.42
67842;BME280;54642;59.126;37.876;2022-09-30T00:50:26;99519.59;;;10.57;82.59
67842;BME280;54642;59.126;37.876;2022-09-30T00:55:49;99523.97;;;10.54;82.59
67842;BME280;54642;59.126;37.876;2022-09-30T00:58:39;99540.13;;;10.71;82.56
67842;BME280;54642;59.126;37.876;2022-09-30T01:01:06;99546.97;;;10.77;82.15
67842;BME280;54642;59.126;37.876;2022-09-30T01:03:38;99518.78;;;10.54;82.20
67842;BME280;54642;59.126;37.876;2022-09-30T01:06:05;99534.19;;;10.64;82.33
67842;BME280;54642;59.126;37.876;2022-09-30T01:08:35;99558.25;;;10.73;82.55
67842;BME280;54642;59.126;37.876;2022-09-30T01:11:01;99564.31;;;10.73;82.48
67842;BME280;54642;59.126;37.876;2022-09-30T01:13:30;99542.00;;;10.60;82.71
67842;BME280;54642;59.126;37.876;2022-09-30T01:16:44;99549.72;;;10.66;82.63
67842;BME280;54642;59.126;37.876;2022-09-30T01:36:07;99515.94;;;10.71;82.33
67842;BME280;54642;59.126;37.876;2022-09-30T01:43:56;99517.81;;;10.62;82.62
67842;BME280;54642;59.126;37.876;2022-09-30T01:52:21;99552.03;;;10.84;82.49
67842;BME280;54642;59.126;37.876;2022-09-30T01:55:13;99531.31;;;10.83;82.70
67842;BME280;54642;59.126;37.876;2022-09-30T02:00:17;99522.75;;;10.78;82.68
67842;BME280;54642;59.126;37.876;2022-09-30T02:02:52;99551.06;;;10.93;82.53
67842;BME280;54642;59.126;37.876;2022-09-30T02:05:24;99544.97;;;10.94;82.49
67842;BME280;54642;59.126;37.876;2022-09-30T02:08:03;99530.53;;;10.78;82.72
67842;BME280;54642;59.126;37.876;2022-09-30T02:10:34;99522.75;;;10.78;82.55
67842;BME280;54642;59.126;37.876;2022-09-30T02:13:19;99542.53;;;10.83;82.48
67842;BME280;54642;59.126;37.876;2022-09-30T02:15:58;99528.78;;;10.78;82.69
67842;BME280;54642;59.126;37.876;2022-09-30T02:18:36;99565.81;;;10.88;82.75
67842;BME280;54642;59.126;37.876;2022-09-30T02:21:06;99542.75;;;10.70;82.73
67842;BME280;54642;59.126;37.876;2022-09-30T02:23:37;99546.19;;;10.72;82.58
67842;BME280;54642;59.126;37.876;2022-09-30T02:26:18;99552.06;;;10.83;82.63
67842;BME280;54642;59.126;37.876;2022-09-30T02:28:53;99570.22;;;10.81;82.69
67842;BME280;54642;59.126;37.876;2022-09-30T02:31:23;99562.47;;;10.80;82.68
67842;BME280;54642;59.126;37.876;2022-09-30T02:34:00;99555.50;;;10.82;82.74
67842;BME280;54642;59.126;37.876;2022-09-30T02:36:34;99571.84;;;10.88;82.67
67842;BME280;54642;59.126;37.876;2022-09-30T02:39:07;99578.78;;;10.88;82.63
67842;BME280;54642;59.126;37.876;2022-09-30T02:41:46;99573.72;;;10.80;82.64
67842;BME280;54642;59.126;37.876;2022-09-30T02:44:13;99583.19;;;10.81;82.63
67842;BME280;54642;59.126;37.876;2022-09-30T02:46:49;99581.34;;;10.91;82.74
67842;BME280;54642;59.126;37.876;2022-09-30T02:52:29;99582.31;;;10.82;82.87
67842;BME280;54642;59.126;37.876;2022-09-30T02:57:43;99584.84;;;10.85;82.91
67842;BME280;54642;59.126;37.876;2022-09-30T03:00:13;99583.13;;;10.87;82.76
67842;BME280;54642;59.126;37.876;2022-09-30T03:02:39;99543.63;;;10.67;82.67
67842;BME280;54642;59.126;37.876;2022-09-30T03:05:07;99589.94;;;10.93;83.06
67842;BME280;54642;59.126;37.876;2022-09-30T03:07:33;99585.69;;;10.87;82.62
67842;BME280;54642;59.126;37.876;2022-09-30T03:09:59;99583.84;;;10.94;82.71
67842;BME280;54642;59.126;37.876;2022-09-30T03:17:49;99581.25;;;10.94;82.59
67842;BME280;54642;59.126;37.876;2022-09-30T03:23:02;99582.00;;;11.05;82.65
67842;BME280;54642;59.126;37.876;2022-09-30T03:28:09;99593.34;;;10.97;82.55
67842;BME280;54642;59.126;37.876;2022-09-30T03:31:01;99591.72;;;10.88;82.46
67842;BME280;54642;59.126;37.876;2022-09-30T03:36:08;99608.00;;;10.98;82.62
67842;BME280;54642;59.126;37.876;2022-09-30T03:44:24;99603.72;;;10.95;82.44
67842;BME280;54642;59.126;37.876;2022-09-30T03:46:34;99568.53;;;10.80;82.86
67842;BME280;54642;59.126;37.876;2022-09-30T03:49:04;99588.31;;;10.86;82.75
67842;BME280;54642;59.126;37.876;2022-09-30T03:51:35;99579.72;;;10.84;82.69
67842;BME280;54642;59.126;37.876;2022-09-30T03:54:05;99608.91;;;10.95;82.78
67842;BME280;54642;59.126;37.876;2022-09-30T03:56:32;99611.44;;;11.00;82.80
67842;BME280;54642;59.126;37.876;2022-09-30T03:58:59;99590.91;;;10.86;82.73
67842;BME280;54642;59.126;37.876;2022-09-30T04:01:25;99593.44;;;10.89;82.82
67842;BME280;54642;59.126;37.876;2022-09-30T04:03:52;99608.81;;;11.01;82.90
67842;BME280;54642;59.126;37.876;2022-09-30T04:06:20;99577.13;;;10.84;82.80
67842;BME280;54642;59.126;37.876;2022-09-30T04:08:47;99603.63;;;11.03;82.78
67842;BME280;54642;59.126;37.876;2022-09-30T04:11:13;99593.25;;;11.03;82.97
67842;BME280;54642;59.126;37.876;2022-09-30T04:13:39;99589.69;;;11.09;82.79
67842;BME280;54642;59.126;37.876;2022-09-30T04:16:06;99596.59;;;11.11;82.75
67842;BME280;54642;59.126;37.876;2022-09-30T04:18:35;99571.66;;;11.02;82.85
67842;BME280;54642;59.126;37.876;2022-09-30T04:21:11;99564.75;;;11.00;82.61
67842;BME280;54642;59.126;37.876;2022-09-30T04:23:38;99575.88;;;11.10;82.71
67842;BME280;54642;59.126;37.876;2022-09-30T04:26:07;99566.50;;;11.01;82.88
67842;BME280;54642;59.126;37.876;2022-09-30T04:28:34;99589.63;;;11.15;82.76
67842;BME280;54642;59.126;37.876;2022-09-30T04:31:01;99574.16;;;11.09;82.63
67842;BME280;54642;59.126;37.876;2022-09-30T04:33:27;99579.31;;;11.10;82.63
67842;BME280;54642;59.126;37.876;2022-09-30T04:35:58;99587.97;;;11.11;82.54
67842;BME280;54642;59.126;37.876;2022-09-30T04:38:25;99591.56;;;11.02;82.74
67842;BME280;54642;59.126;37.876;2022-09-30T04:40:52;99613.94;;;11.07;82.72
67842;BME280;54642;59.126;37.876;2022-09-30T04:43:19;99611.34;;;11.06;82.62
67842;BME280;54642;59.126;37.876;2022-09-30T04:45:47;99628.56;;;11.12;82.91
67842;BME280;54642;59.126;37.876;2022-09-30T04:48:13;99629.53;;;11.04;82.65
67842;BME280;54642;59.126;37.876;2022-09-30T04:50:40;99634.59;;;11.12;82.85
67842;BME280;54642;59.126;37.876;2022-09-30T04:53:07;99638.13;;;11.06;82.97
67842;BME280;54642;59.126;37.876;2022-09-30T04:55:33;99637.19;;;11.14;82.98
67842;BME280;54642;59.126;37.876;2022-09-30T04:57:59;99622.63;;;11.03;82.89
67842;BME280;54642;59.126;37.876;2022-09-30T05:00:24;99637.19;;;11.12;82.83
67842;BME280;54642;59.126;37.876;2022-09-30T05:02:50;99642.31;;;11.17;83.12
67842;BME280;54642;59.126;37.876;2022-09-30T05:05:16;99617.44;;;11.03;82.96
67842;BME280;54642;59.126;37.876;2022-09-30T05:07:43;99645.78;;;11.17;83.03
67842;BME280;54642;59.126;37.876;2022-09-30T05:10:10;99613.09;;;11.05;82.89
67842;BME280;54642;59.126;37.876;2022-09-30T05:12:37;99629.38;;;11.17;82.88
67842;BME280;54642;59.126;37.876;2022-09-30T05:15:04;99649.19;;;11.21;82.76
67842;BME280;54642;59.126;37.876;2022-09-30T05:17:30;99647.47;;;11.20;82.92
67842;BME280;54642;59.126;37.876;2022-09-30T05:19:57;99650.91;;;11.20;82.95
67842;BME280;54642;59.126;37.876;2022-09-30T05:22:23;99651.84;;;11.18;82.60
67842;BME280;54642;59.126;37.876;2022-09-30T05:24:50;99648.47;;;11.10;82.87
67842;BME280;54642;59.126;37.876;2022-09-30T05:27:18;99656.13;;;11.19;82.83
67842;BME280;54642;59.126;37.876;2022-09-30T05:29:44;99654.34;;;11.22;82.96
67842;BME280;54642;59.126;37.876;2022-09-30T05:32:10;99632.06;;;11.11;82.87
67842;BME280;54642;59.126;37.876;2022-09-30T05:34:36;99650.00;;;11.23;82.41
67842;BME280;54642;59.126;37.876;2022-09-30T05:37:07;99638.88;;;11.18;82.79
67842;BME280;54642;59.126;37.876;2022-09-30T05:39:34;99640.56;;;11.20;82.79
67842;BME280;54642;59.126;37.876;2022-09-30T05:42:00;99638.81;;;11.19;82.80
67842;BME280;54642;59.126;37.876;2022-09-30T05:44:26;99668.06;;;11.31;82.89
67842;BME280;54642;59.126;37.876;2022-09-30T05:46:52;99666.44;;;11.25;82.79
67842;BME280;54642;59.126;37.876;2022-09-30T05:49:17;99675.88;;;11.29;82.98
67842;BME280;54642;59.126;37.876;2022-09-30T05:51:43;99656.22;;;11.14;82.76
67842;BME280;54642;59.126;37.876;2022-09-30T05:54:10;99645.91;;;11.06;83.23
67842;BME280;54642;59.126;37.876;2022-09-30T05:56:36;99675.88;;;11.29;82.93
67842;BME280;54642;59.126;37.876;2022-09-30T05:59:05;99686.25;;;11.31;82.91
67842;BME280;54642;59.126;37.876;2022-09-30T06:01:32;99669.94;;;11.19;82.82
67842;BME280;54642;59.126;37.876;2022-09-30T06:03:58;99674.22;;;11.25;82.69
67842;BME280;54642;59.126;37.876;2022-09-30T06:06:24;99646.81;;;11.05;82.90
67842;BME280;54642;59.126;37.876;2022-09-30T06:08:51;99664.84;;;11.13;82.67
67842;BME280;54642;59.126;37.876;2022-09-30T06:11:19;99686.25;;;11.29;82.75
67842;BME280;54642;59.126;37.876;2022-09-30T06:13:46;99655.44;;;11.07;82.87
67842;BME280;54642;59.126;37.876;2022-09-30T06:16:13;99682.84;;;11.25;83.01
67842;BME280;54642;59.126;37.876;2022-09-30T06:18:40;99694.97;;;11.25;82.95
67842;BME280;54642;59.126;37.876;2022-09-30T06:21:08;99676.06;;;11.14;82.95
67842;BME280;54642;59.126;37.876;2022-09-30T06:23:35;99700.00;;;11.36;82.93
67842;BME280;54642;59.126;37.876;2022-09-30T06:26:03;99679.41;;;11.25;82.84
67842;BME280;54642;59.126;37.876;2022-09-30T06:28:30;99699.97;;;11.37;82.70
67842;BME280;54642;59.126;37.876;2022-09-30T06:30:58;99705.28;;;11.28;82.84
67842;BME280;54642;59.126;37.876;2022-09-30T06:33:24;99677.78;;;11.16;82.86
67842;BME280;54642;59.126;37.876;2022-09-30T06:35:50;99700.09;;;11.28;82.99
67842;BME280;54642;59.126;37.876;2022-09-30T06:38:16;99688.00;;;11.27;82.85
67842;BME280;54642;59.126;37.876;2022-09-30T06:40:43;99712.91;;;11.39;82.83
67842;BME280;54642;59.126;37.876;2022-09-30T06:43:09;99707.75;;;11.37;82.78
67842;BME280;54642;59.126;37.876;2022-09-30T06:45:36;99689.66;;;11.34;82.95
67842;BME280;54642;59.126;37.876;2022-09-30T06:48:03;99685.34;;;11.32;82.59
67842;BME280;54642;59.126;37.876;2022-09-30T06:50:31;99699.91;;;11.40;82.66
67842;BME280;54642;59.126;37.876;2022-09-30T06:52:58;99692.38;;;11.23;82.78
67842;BME280;54642;59.126;37.876;2022-09-30T06:55:26;99692.31;;;11.26;82.88
67842;BME280;54642;59.126;37.876;2022-09-30T06:57:52;99689.72;;;11.28;82.95
67842;BME280;54642;59.126;37.876;2022-09-30T07:00:18;99684.53;;;11.28;83.16
67842;BME280;54642;59.126;37.876;2022-09-30T07:02:44;99700.78;;;11.41;83.19
67842;BME280;54642;59.126;37.876;2022-09-30T07:05:10;99692.06;;;11.47;82.94
67842;BME280;54642;59.126;37.876;2022-09-30T07:07:36;99698.03;;;11.52;82.86
67842;BME280;54642;59.126;37.876;2022-09-30T07:10:03;99701.41;;;11.58;82.99
67842;BME280;54642;59.126;37.876;2022-09-30T07:12:29;99701.34;;;11.61;82.60
67842;BME280;54642;59.126;37.876;2022-09-30T07:14:55;99693.63;;;11.57;82.53
67842;BME280;54642;59.126;37.876;2022-09-30T07:17:21;99693.59;;;11.60;82.46
67842;BME280;54642;59.126;37.876;2022-09-30T07:19:47;99698.75;;;11.61;82.52
67842;BME280;54642;59.126;37.876;2022-09-30T07:22:12;99709.03;;;11.68;82.38
67842;BME280;54642;59.126;37.876;2022-09-30T07:25:03;99688.53;;;11.52;82.09
67842;BME280;54642;59.126;37.876;2022-09-30T07:27:31;99686.81;;;11.48;82.26
67842;BME280;54642;59.126;37.876;2022-09-30T07:29:58;99703.00;;;11.67;82.21
67842;BME280;54642;59.126;37.876;2022-09-30T07:32:24;99693.56;;;11.61;82.54
67842;BME280;54642;59.126;37.876;2022-09-30T07:34:50;99680.75;;;11.51;82.34
67842;BME280;54642;59.126;37.876;2022-09-30T07:37:17;99693.59;;;11.58;82.39
67842;BME280;54642;59.126;37.876;2022-09-30T07:39:46;99698.75;;;11.63;82.54
67842;BME280;54642;59.126;37.876;2022-09-30T07:42:13;99724.56;;;11.71;82.40
67842;BME280;54642;59.126;37.876;2022-09-30T07:44:40;99720.28;;;11.70;82.45
67842;BME280;54642;59.126;37.876;2022-09-30T07:47:09;99710.81;;;11.66;82.48
67842;BME280;54642;59.126;37.876;2022-09-30T07:49:35;99725.38;;;11.74;82.48
67842;BME280;54642;59.126;37.876;2022-09-30T07:52:01;99726.31;;;11.70;82.45
67842;BME280;54642;59.126;37.876;2022-09-30T07:54:29;99718.53;;;11.70;82.51
67842;BME280;54642;59.126;37.876;2022-09-30T07:56:57;99715.97;;;11.69;82.42
67842;BME280;54642;59.126;37.876;2022-09-30T07:59:26;99718.53;;;11.70;82.20
67842;BME280;54642;59.126;37.876;2022-09-30T08:01:52;99739.97;;;11.83;82.18
67842;BME280;54642;59.126;37.876;2022-09-30T08:04:19;99732.19;;;11.81;82.39
67842;BME280;54642;59.126;37.876;2022-09-30T08:06:49;99725.47;;;11.70;82.30
67842;BME280;54642;59.126;37.876;2022-09-30T08:09:16;99751.22;;;11.82;82.31
67842;BME280;54642;59.126;37.876;2022-09-30T08:11:43;99733.19;;;11.73;82.42
67842;BME280;54642;59.126;37.876;2022-09-30T08:14:14;99743.47;;;11.80;82.52
67842;BME280;54642;59.126;37.876;2022-09-30T08:16:40;99729.72;;;11.74;82.38
67842;BME280;54642;59.126;37.876;2022-09-30T08:19:11;99746.88;;;11.84;82.13
67842;BME280;54642;59.126;37.876;2022-09-30T08:21:37;99742.59;;;11.81;82.29
67842;BME280;54642;59.126;37.876;2022-09-30T08:24:03;99723.63;;;11.76;82.40
67842;BME280;54642;59.126;37.876;2022-09-30T08:26:29;99758.94;;;11.88;82.15
67842;BME280;54642;59.126;37.876;2022-09-30T08:28:55;99743.47;;;11.80;82.17
67842;BME280;54642;59.126;37.876;2022-09-30T08:31:22;99757.19;;;11.90;82.16
67842;BME280;54642;59.126;37.876;2022-09-30T08:33:49;99742.53;;;11.85;82.33
67842;BME280;54642;59.126;37.876;2022-09-30T08:36:17;99756.34;;;11.88;82.30
67842;BME280;54642;59.126;37.876;2022-09-30T08:38:44;99732.22;;;11.80;82.02
67842;BME280;54642;59.126;37.876;2022-09-30T08:47:12;99767.56;;;11.92;82.03
67842;BME280;54642;59.126;37.876;2022-09-30T08:49:47;99761.50;;;11.90;81.82
67842;BME280;54642;59.126;37.876;2022-09-30T08:52:21;99739.25;;;11.73;81.99
67842;BME280;54642;59.126;37.876;2022-09-30T08:54:51;99738.38;;;11.74;82.12
67842;BME280;54642;59.126;37.876;2022-09-30T08:57:19;99753.88;;;11.80;82.16
67842;BME280;54642;59.126;37.876;2022-09-30T08:59:53;99756.41;;;11.82;82.30
67842;BME280;54642;59.126;37.876;2022-09-30T09:02:32;99771.94;;;11.85;82.15
67842;BME280;54642;59.126;37.876;2022-09-30T09:05:04;99742.72;;;11.72;82.01
67842;BME280;54642;59.126;37.876;2022-09-30T09:10:37;99775.38;;;11.87;82.36
67842;BME280;54642;59.126;37.876;2022-09-30T09:15:51;99763.22;;;11.92;81.92
67842;BME280;54642;59.126;37.876;2022-09-30T09:20:56;99748.69;;;11.80;82.01
67842;BME280;54642;59.126;37.876;2022-09-30T09:23:23;99773.63;;;11.91;82.14
67842;BME280;54642;59.126;37.876;2022-09-30T09:25:50;99783.13;;;11.93;82.41
67842;BME280;54642;59.126;37.876;2022-09-30T09:28:36;99777.94;;;11.93;82.06
67842;BME280;54642;59.126;37.876;2022-09-30T09:31:04;99761.56;;;11.87;81.79
67842;BME280;54642;59.126;37.876;2022-09-30T09:33:34;99775.25;;;11.98;81.99
67842;BME280;54642;59.126;37.876;2022-09-30T09:42:04;99779.50;;;12.04;81.78
67842;BME280;54642;59.126;37.876;2022-09-30T09:45:05;99784.72;;;12.02;82.18
67842;BME280;54642;59.126;37.876;2022-09-30T09:47:35;99780.56;;;11.89;82.09
67842;BME280;54642;59.126;37.876;2022-09-30T09:50:02;99778.91;;;11.83;81.92
67842;BME280;54642;59.126;37.876;2022-09-30T09:55:25;99763.38;;;11.80;81.91
67842;BME280;54642;59.126;37.876;2022-09-30T09:58:09;99796.94;;;11.95;81.90
67842;BME280;54642;59.126;37.876;2022-09-30T10:00:35;99802.13;;;11.95;81.83
67842;BME280;54642;59.126;37.876;2022-09-30T10:03:15;99772.13;;;11.74;81.82
67842;BME280;54642;59.126;37.876;2022-09-30T10:06:03;99777.31;;;11.74;81.79
67842;BME280;54642;59.126;37.876;2022-09-30T10:08:31;99779.91;;;11.73;82.14
67842;BME280;54642;59.126;37.876;2022-09-30T10:13:30;99796.25;;;11.81;82.15
67842;BME280;54642;59.126;37.876;2022-09-30T10:15:59;99807.50;;;11.81;82.09
67842;BME280;54642;59.126;37.876;2022-09-30T10:23:36;99817.88;;;11.80;81.88
67842;BME280;54642;59.126;37.876;2022-09-30T10:26:23;99792.06;;;11.69;82.22
67842;BME280;54642;59.126;37.876;2022-09-30T10:36:47;99803.22;;;11.77;81.94
67842;BME280;54642;59.126;37.876;2022-09-30T10:42:25;99807.72;;;11.66;81.60
67842;BME280;54642;59.126;37.876;2022-09-30T10:44:55;99805.19;;;11.60;nan
67842;BME280;54642;59.126;37.876;2022-09-30T10:47:24;99817.25;;;11.64;81.65
67842;BME280;54642;59.126;37.876;2022-09-30T10:50:01;99840.53;;;11.70;81.75
67842;BME280;54642;59.126;37.876;2022-09-30T10:52:35;99814.72;;;11.58;81.64
67842;BME280;54642;59.126;37.876;2022-09-30T10:55:08;99826.75;;;11.65;81.66
67842;BME280;54642;59.126;37.876;2022-09-30T10:57:51;99822.53;;;11.58;81.89
67842;BME280;54642;59.126;37.876;2022-09-30T11:00:20;99801.94;;;11.44;81.78
67842;BME280;54642;59.126;37.876;2022-09-30T11:03:07;99822.50;;;11.61;81.57
67842;BME280;54642;59.126;37.876;2022-09-30T11:05:43;99825.13;;;11.58;81.70
67842;BME280;54642;59.126;37.876;2022-09-30T11:08:21;99807.19;;;11.39;81.64
67842;BME280;54642;59.126;37.876;2022-09-30T11:11:05;99810.63;;;11.41;81.66
67842;BME280;54642;59.126;37.876;2022-09-30T11:19:10;99825.09;;;11.61;81.44
67842;BME280;54642;59.126;37.876;2022-09-30T11:24:17;99831.09;;;11.64;82.03
67842;BME280;54642;59.126;37.876;2022-09-30T11:36:01;99826.47;;;11.87;81.07
67842;BME280;54642;59.126;37.876;2022-09-30T11:38:13;99798.06;;;11.76;81.50
67842;BME280;54642;59.126;37.876;2022-09-30T12:05:25;99799.59;;;11.91;80.88
67842;BME280;54642;59.126;37.876;2022-09-30T12:07:57;99805.59;;;11.94;81.05
67842;BME280;54642;59.126;37.876;2022-09-30T12:10:31;99793.56;;;11.87;81.20
67842;BME280;54642;59.126;37.876;2022-09-30T12:13:03;99804.56;;;12.06;81.30
67842;BME280;54642;59.126;37.876;2022-09-30T12:15:31;99797.66;;;12.05;81.10
67842;BME280;54642;59.126;37.876;2022-09-30T12:18:04;99799.41;;;12.03;81.33
67842;BME280;54642;59.126;37.876;2022-09-30T12:20:34;99794.25;;;12.00;80.88
67842;BME280;54642;59.126;37.876;2022-09-30T12:23:20;99808.00;;;12.08;81.27
67842;BME280;54642;59.126;37.876;2022-09-30T12:26:01;99814.06;;;12.07;81.46
67842;BME280;54642;59.126;37.876;2022-09-30T12:28:40;99819.19;;;12.12;81.41
67842;BME280;54642;59.126;37.876;2022-09-30T12:37:41;99813.13;;;12.14;80.96
67842;BME280;54642;59.126;37.876;2022-09-30T12:40:36;99804.53;;;12.09;81.28
67842;BME280;54642;59.126;37.876;2022-09-30T12:48:58;99808.97;;;12.02;81.49
67842;BME280;54642;59.126;37.876;2022-09-30T12:51:30;99804.66;;;12.00;81.60
67842;BME280;54642;59.126;37.876;2022-09-30T12:54:04;99788.31;;;11.95;81.70
67842;BME280;54642;59.126;37.876;2022-09-30T12:56:33;99792.56;;;11.99;81.44
67842;BME280;54642;59.126;37.876;2022-09-30T12:58:59;99801.97;;;12.06;81.65
67842;BME280;54642;59.126;37.876;2022-09-30T13:01:30;99812.25;;;12.14;81.70
67842;BME280;54642;59.126;37.876;2022-09-30T13:11:46;99819.78;;;12.31;81.89
67842;BME280;54642;59.126;37.876;2022-09-30T13:14:34;99816.28;;;12.33;81.84
67842;BME280;54642;59.126;37.876;2022-09-30T13:19:37;99816.28;;;12.32;81.54
67842;BME280;54642;59.126;37.876;2022-09-30T13:27:39;99829.41;;;12.24;81.67
67842;BME280;54642;59.126;37.876;2022-09-30T13:43:13;99830.34;;;12.22;81.79
67842;BME280;54642;59.126;37.876;2022-09-30T13:45:43;99823.47;;;12.16;81.85
67842;BME280;54642;59.126;37.876;2022-09-30T13:48:27;99810.63;;;12.07;81.85
67842;BME280;54642;59.126;37.876;2022-09-30T13:50:57;99802.94;;;12.00;81.78
67842;BME280;54642;59.126;37.876;2022-09-30T13:55:51;99806.31;;;12.06;81.96
67842;BME280;54642;59.126;37.876;2022-09-30T13:58:43;99803.75;;;12.02;81.83
67842;BME280;54642;59.126;37.876;2022-09-30T14:07:07;99812.34;;;12.08;81.99
67842;BME280;54642;59.126;37.876;2022-09-30T14:10:09;99821.81;;;12.12;81.86
67842;BME280;54642;59.126;37.876;2022-09-30T14:24:13;99840.84;;;12.12;81.90
67842;BME280;54642;59.126;37.876;2022-09-30T14:27:18;99841.72;;;12.11;82.32
67842;BME280;54642;59.126;37.876;2022-09-30T14:30:17;99839.09;;;12.14;82.04
67842;BME280;54642;59.126;37.876;2022-09-30T14:33:23;99833.84;;;12.16;82.16
67842;BME280;54642;59.126;37.876;2022-09-30T14:35:52;99809.84;;;12.00;82.11
67842;BME280;54642;59.126;37.876;2022-09-30T14:38:23;99845.94;;;12.18;81.93
67842;BME280;54642;59.126;37.876;2022-09-30T14:40:57;99842.41;;;12.23;81.95
67842;BME280;54642;59.126;37.876;2022-09-30T14:43:28;99838.03;;;12.26;81.88
67842;BME280;54642;59.126;37.876;2022-09-30T14:46:37;99841.38;;;12.34;81.52
67842;BME280;54642;59.126;37.876;2022-09-30T14:49:07;99831.06;;;12.30;81.50
67842;BME280;54642;59.126;37.876;2022-09-30T14:51:43;99844.03;;;12.31;81.44
67842;BME280;54642;59.126;37.876;2022-09-30T14:54:22;99823.41;;;12.20;81.46
67842;BME280;54642;59.126;37.876;2022-09-30T14:56:49;99853.47;;;12.35;81.17
67842;BME280;54642;59.126;37.876;2022-09-30T14:59:18;99845.78;;;12.31;81.70
67842;BME280;54642;59.126;37.876;2022-09-30T15:01:47;99856.16;;;12.31;81.44
67842;BME280;54642;59.126;37.876;2022-09-30T15:04:16;99851.75;;;12.36;81.50
67842;BME280;54642;59.126;37.876;2022-09-30T15:06:46;99850.84;;;12.37;81.27
67842;BME280;54642;59.126;37.876;2022-09-30T15:11:44;99850.88;;;12.35;81.31
67842;BME280;54642;59.126;37.876;2022-09-30T15:14:19;99857.81;;;12.35;81.26
67842;BME280;54642;59.126;37.876;2022-09-30T15:16:51;99856.97;;;12.36;81.35
67842;BME280;54642;59.126;37.876;2022-09-30T15:19:23;99850.06;;;12.32;81.67
67842;BME280;54642;59.126;37.876;2022-09-30T15:21:51;99829.38;;;12.26;81.57
67842;BME280;54642;59.126;37.876;2022-09-30T15:24:19;99856.66;;;12.54;81.74
67842;BME280;54642;59.126;37.876;2022-09-30T15:26:46;99832.41;;;12.54;81.10
67842;BME280;54642;59.126;37.876;2022-09-30T15:29:16;99856.47;;;12.65;80.67
67842;BME280;54642;59.126;37.876;2022-09-30T15:31:45;99834.25;;;12.46;80.94
67842;BME280;54642;59.126;37.876;2022-09-30T15:34:16;99858.31;;;12.58;81.30
67842;BME280;54642;59.126;37.876;2022-09-30T15:36:44;99861.88;;;12.53;80.84
67842;BME280;54642;59.126;37.876;2022-09-30T15:39:27;99846.44;;;12.42;81.04
67842;BME280;54642;59.126;37.876;2022-09-30T15:42:27;99853.31;;;12.45;81.00
67842;BME280;54642;59.126;37.876;2022-09-30T15:44:55;99868.06;;;12.44;80.89
67842;BME280;54642;59.126;37.876;2022-09-30T15:47:25;99865.44;;;12.46;80.87
67842;BME280;54642;59.126;37.876;2022-09-30T15:49:52;99868.06;;;12.44;81.22
67842;BME280;54642;59.126;37.876;2022-09-30T15:52:50;99869.81;;;12.45;80.63
67842;BME280;54642;59.126;37.876;2022-09-30T15:55:36;99869.84;;;12.42;80.97
67842;BME280;54642;59.126;37.876;2022-09-30T15:58:03;99871.66;;;12.37;81.00
67842;BME280;54642;59.126;37.876;2022-09-30T16:00:40;99869.06;;;12.37;80.93
67842;BME280;54642;59.126;37.876;2022-09-30T16:05:38;99868.25;;;12.32;81.10
67842;BME280;54642;59.126;37.876;2022-09-30T16:08:07;99871.72;;;12.32;81.21
67842;BME280;54642;59.126;37.876;2022-09-30T16:10:34;99866.56;;;12.31;81.23
67842;BME280;54642;59.126;37.876;2022-09-30T16:13:03;99863.13;;;12.29;81.35
67842;BME280;54642;59.126;37.876;2022-09-30T16:15:36;99856.16;;;12.31;81.21
67842;BME280;54642;59.126;37.876;2022-09-30T16:18:05;99864.81;;;12.30;80.86
67842;BME280;54642;59.126;37.876;2022-09-30T16:20:58;99846.00;;;12.15;81.00
67842;BME280;54642;59.126;37.876;2022-09-30T16:23:30;99867.50;;;12.25;81.24
67842;BME280;54642;59.126;37.876;2022-09-30T16:28:41;99852.13;;;12.10;81.13
67842;BME280;54642;59.126;37.876;2022-09-30T16:31:10;99847.81;;;12.09;81.04
67842;BME280;54642;59.126;37.876;2022-09-30T16:33:39;99863.25;;;12.19;81.17
67842;BME280;54642;59.126;37.876;2022-09-30T16:36:09;99828.91;;;11.99;81.26
67842;BME280;54642;59.126;37.876;2022-09-30T16:38:36;99866.66;;;12.23;81.16
67842;BME280;54642;59.126;37.876;2022-09-30T16:41:03;99861.44;;;12.25;81.60
67842;BME280;54642;59.126;37.876;2022-09-30T16:43:30;99848.47;;;12.23;81.38